Time;durP1;ratioP1;P1;durP2;ratioP2;P2;SDS_P1;SDS_P2;PMS_P1;PMS_P2;Temp;Humidity;BMP_temperature;BMP_pressure;BME280_temperature;BME280_humidity;BME280_pressure;Samples;Min_cycle;Max_cycle;Signal;HPM_P1;HPM_P2
2024/01/04 00:03:45;;;;;;;0.63;0.43;;;21.20;47.60;;;;;;10229161;28;20058;-42
2024/01/04 00:08:47;;;;;;;1.05;0.38;;;21.10;47.80;;;;;;10227722;28;20053;-42
2024/01/04 00:13:48;;;;;;;0.40;0.38;;;21.10;47.70;;;;;;10233305;28;20121;-42
2024/01/04 00:18:51;;;;;;;1.15;0.47;;;21.10;47.60;;;;;;10246569;28;20047;-42
2024/01/04 00:23:53;;;;;;;0.95;0.50;;;21.00;47.70;;;;;;10229954;28;20051;-44
2024/01/04 00:28:55;;;;;;;0.52;0.40;;;21.00;47.80;;;;;;10234142;28;20062;-43
2024/01/04 00:33:58;;;;;;;0.90;0.50;;;21.10;47.40;;;;;;10231201;28;20101;-42
2024/01/04 00:38:59;;;;;;;0.40;0.30;;;21.10;47.30;;;;;;10232113;28;20134;-44
2024/01/04 00:44:01;;;;;;;0.45;0.40;;;21.00;47.60;;;;;;10232677;28;20134;-43
2024/01/04 00:49:04;;;;;;;1.20;0.43;;;20.90;47.60;;;;;;10224532;28;20054;-43
2024/01/04 00:54:06;;;;;;;0.90;0.55;;;20.90;47.30;;;;;;10229063;28;20104;-43
2024/01/04 00:59:08;;;;;;;1.10;0.50;;;20.90;47.50;;;;;;10239882;28;20407;-43
2024/01/04 01:04:11;;;;;;;0.45;0.30;;;20.90;47.30;;;;;;10233337;28;20049;-42
2024/01/04 01:09:13;;;;;;;0.35;0.35;;;20.90;47.30;;;;;;10242270;28;20043;-42
2024/01/04 01:14:15;;;;;;;0.90;0.50;;;20.90;47.10;;;;;;10230934;28;20070;-43
2024/01/04 01:19:18;;;;;;;0.35;0.30;;;20.90;47.00;;;;;;10232644;28;20876;-42
2024/01/04 01:24:20;;;;;;;0.35;0.30;;;20.80;47.20;;;;;;10232656;28;20154;-43
2024/01/04 01:29:21;;;;;;;0.65;0.40;;;20.80;47.10;;;;;;10232221;28;20131;-42
2024/01/04 01:34:24;;;;;;;0.77;0.38;;;20.80;47.20;;;;;;10233891;28;20142;-45
2024/01/04 01:39:26;;;;;;;0.57;0.40;;;20.70;47.10;;;;;;10226967;28;20136;-42
2024/01/04 01:44:28;;;;;;;1.17;0.40;;;20.70;47.20;;;;;;10239107;28;20532;-41
2024/01/04 01:49:31;;;;;;;0.63;0.40;;;20.60;47.20;;;;;;10228426;28;20409;-42
2024/01/04 01:54:32;;;;;;;0.30;0.30;;;20.60;47.20;;;;;;10234421;28;20457;-43
2024/01/04 01:59:34;;;;;;;0.75;0.40;;;20.70;47.00;;;;;;10228918;28;20126;-44
2024/01/04 02:04:37;;;;;;;0.43;0.40;;;20.60;47.00;;;;;;10224625;28;20047;-42
2024/01/04 02:09:38;;;;;;;0.50;0.40;;;20.40;47.20;;;;;;10193763;28;20056;-42
2024/01/04 02:14:40;;;;;;;0.32;0.30;;;20.50;47.00;;;;;;10191702;28;20709;-54
2024/01/04 02:19:43;;;;;;;0.30;0.30;;;20.40;47.00;;;;;;10240747;28;20078;-41
2024/01/04 02:24:46;;;;;;;1.05;0.30;;;20.40;47.10;;;;;;10193610;29;20146;-47
2024/01/04 02:29:47;;;;;;;0.30;0.30;;;20.30;47.30;;;;;;10225890;28;20496;-44
2024/01/04 02:34:49;;;;;;;0.60;0.30;;;20.30;47.20;;;;;;10233267;28;20061;-44
2024/01/04 02:39:52;;;;;;;0.30;0.30;;;20.20;47.30;;;;;;10235825;28;20141;-43
2024/01/04 02:44:54;;;;;;;0.20;0.20;;;20.20;47.40;;;;;;10189964;28;20498;-42
2024/01/04 02:49:55;;;;;;;0.25;0.20;;;20.00;47.40;;;;;;10190987;28;20055;-44
2024/01/04 02:54:58;;;;;;;0.55;0.30;;;20.00;47.50;;;;;;10191625;28;20126;-42
2024/01/04 03:00:00;;;;;;;0.40;0.40;;;19.90;47.80;;;;;;10235081;28;20138;-46
2024/01/04 03:05:01;;;;;;;0.70;0.30;;;19.90;47.80;;;;;;10239608;28;20490;-42
2024/01/04 03:10:06;;;;;;;0.30;0.30;;;19.80;47.70;;;;;;10232898;28;20161;-42
2024/01/04 03:15:09;;;;;;;0.98;0.40;;;19.80;47.60;;;;;;10230360;28;20494;-42
2024/01/04 03:20:11;;;;;;;0.88;0.40;;;19.70;47.70;;;;;;10239425;28;20051;-41
2024/01/04 03:25:14;;;;;;;0.70;0.40;;;19.70;47.80;;;;;;10236585;28;20518;-42
2024/01/04 03:30:16;;;;;;;0.30;0.30;;;19.60;47.80;;;;;;10233954;28;20134;-43
2024/01/04 03:35:18;;;;;;;0.50;0.40;;;19.60;47.70;;;;;;10239123;28;20047;-43
2024/01/04 03:40:21;;;;;;;0.30;0.20;;;19.60;47.70;;;;;;10238950;28;20083;-41
2024/01/04 03:45:22;;;;;;;0.50;0.38;;;19.50;47.90;;;;;;10235897;28;20049;-42
2024/01/04 03:50:24;;;;;;;0.65;0.30;;;19.50;47.70;;;;;;10241192;28;20059;-44
2024/01/04 03:55:27;;;;;;;1.08;0.30;;;19.50;47.60;;;;;;10235210;28;20399;-41
2024/01/04 04:00:31;;;;;;;0.35;0.28;;;19.50;47.70;;;;;;10223573;28;20138;-43
2024/01/04 04:05:33;;;;;;;0.20;0.20;;;19.40;47.90;;;;;;10199483;28;20044;-43
2024/01/04 04:10:36;;;;;;;0.30;0.30;;;20.10;46.80;;;;;;10200805;28;20052;-43
2024/01/04 04:15:37;;;;;;;0.20;0.20;;;20.60;46.10;;;;;;10207917;28;20065;-42
2024/01/04 04:20:39;;;;;;;0.30;0.30;;;20.70;46.20;;;;;;10206349;28;20063;-44
2024/01/04 04:25:42;;;;;;;0.20;0.20;;;20.50;46.80;;;;;;10198095;28;20035;-42
2024/01/04 04:30:44;;;;;;;0.30;0.30;;;20.80;46.90;;;;;;10207091;28;20043;-43
2024/01/04 04:35:45;;;;;;;0.40;0.30;;;20.90;46.70;;;;;;10207074;28;20043;-42
2024/01/04 04:40:48;;;;;;;0.45;0.30;;;21.20;46.60;;;;;;10242414;28;20039;-41
2024/01/04 04:45:50;;;;;;;0.30;0.30;;;21.40;46.10;;;;;;10226683;28;20055;-42
2024/01/04 04:50:52;;;;;;;0.20;0.20;;;21.70;45.80;;;;;;10236336;28;20460;-43
2024/01/04 04:55:55;;;;;;;0.35;0.22;;;21.90;45.50;;;;;;10239758;28;20053;-42
2024/01/04 05:00:57;;;;;;;0.20;0.20;;;22.10;45.10;;;;;;10234719;28;20076;-45
2024/01/04 05:05:59;;;;;;;0.45;0.30;;;22.30;44.80;;;;;;10238138;28;20075;-43
2024/01/04 05:11:02;;;;;;;0.45;0.30;;;22.30;44.70;;;;;;10214546;28;20138;-43
2024/01/04 05:16:04;;;;;;;0.70;0.20;;;22.40;45.20;;;;;;10234674;28;20066;-43
2024/01/04 05:21:05;;;;;;;1.80;0.45;;;22.40;44.80;;;;;;10243742;28;20047;-42
2024/01/04 05:26:08;;;;;;;0.32;0.30;;;22.20;45.60;;;;;;10229498;28;20047;-42
2024/01/04 05:31:10;;;;;;;0.95;0.30;;;22.00;46.20;;;;;;10242994;28;20141;-42
2024/01/04 05:36:11;;;;;;;0.30;0.30;;;21.90;46.50;;;;;;10239656;28;20169;-42
2024/01/04 05:41:14;;;;;;;2.67;0.30;;;22.00;46.60;;;;;;10238295;28;20146;-42
2024/01/04 05:46:17;;;;;;;0.50;0.35;;;22.30;46.10;;;;;;10237180;28;20504;-44
2024/01/04 05:51:18;;;;;;;11.90;0.50;;;22.40;45.70;;;;;;10230125;28;20058;-43
2024/01/04 05:56:21;;;;;;;5.72;0.70;;;22.40;45.90;;;;;;10230208;28;20051;-43
2024/01/04 06:01:23;;;;;;;2.38;0.45;;;22.40;46.80;;;;;;10232187;28;20054;-43
2024/01/04 06:06:25;;;;;;;5.00;0.63;;;22.50;46.80;;;;;;10230461;28;20490;-42
2024/01/04 06:11:28;;;;;;;9.57;1.20;;;22.30;47.10;;;;;;10231020;28;20138;-44
2024/01/04 06:16:29;;;;;;;8.43;1.25;;;22.40;47.30;;;;;;10226342;28;20047;-42
2024/01/04 06:21:31;;;;;;;13.35;1.58;;;22.50;48.40;;;;;;10235028;28;20076;-42
2024/01/04 06:26:34;;;;;;;17.73;1.60;;;22.50;48.10;;;;;;10230012;28;20047;-44
2024/01/04 06:31:35;;;;;;;13.48;1.73;;;22.60;48.40;;;;;;10231402;28;20497;-42
2024/01/04 06:36:37;;;;;;;10.30;1.35;;;22.50;49.00;;;;;;10236611;28;20147;-43
2024/01/04 06:41:43;;;;;;;6.80;1.30;;;22.50;48.60;;;;;;10227560;28;20073;-42
2024/01/04 06:46:44;;;;;;;10.40;1.50;;;22.50;48.80;;;;;;10231255;28;20054;-44
2024/01/04 06:51:46;;;;;;;13.27;1.63;;;22.40;50.00;;;;;;10234093;28;20531;-43
2024/01/04 06:56:49;;;;;;;14.25;1.83;;;22.50;49.40;;;;;;10238673;28;20150;-42
2024/01/04 07:01:51;;;;;;;10.55;1.80;;;22.40;49.70;;;;;;10236754;28;20066;-44
2024/01/04 07:06:52;;;;;;;15.93;1.77;;;22.30;49.00;;;;;;10227461;28;20490;-44
2024/01/04 07:11:55;;;;;;;8.00;1.63;;;22.30;48.60;;;;;;10228443;28;20134;-43
2024/01/04 07:16:57;;;;;;;5.22;1.30;;;22.20;48.60;;;;;;10233657;28;20148;-43
2024/01/04 07:21:59;;;;;;;13.90;1.52;;;22.00;48.70;;;;;;10241828;28;20146;-43
2024/01/04 07:27:02;;;;;;;8.30;1.38;;;22.00;48.90;;;;;;10234549;28;20122;-43
2024/01/04 07:32:04;;;;;;;7.15;1.30;;;21.70;48.90;;;;;;10235432;28;20051;-45
2024/01/04 07:37:05;;;;;;;9.55;1.40;;;21.60;49.40;;;;;;10248296;28;20126;-43
2024/01/04 07:42:09;;;;;;;11.68;1.50;;;21.70;49.10;;;;;;10240187;28;20051;-42
2024/01/04 07:47:10;;;;;;;5.68;1.27;;;21.50;49.40;;;;;;10239790;28;20130;-45
2024/01/04 07:52:12;;;;;;;4.75;1.20;;;21.10;50.20;;;;;;10235338;28;20886;-43
2024/01/04 07:57:15;;;;;;;7.20;1.17;;;21.10;50.20;;;;;;10230021;28;20039;-43
2024/01/04 08:02:17;;;;;;;5.57;1.38;;;21.50;49.30;;;;;;10245477;28;20122;-42
2024/01/04 08:07:18;;;;;;;4.45;1.05;;;21.40;49.50;;;;;;10240660;28;20071;-43
2024/01/04 08:12:21;;;;;;;10.25;1.52;;;21.60;49.90;;;;;;10238244;28;20497;-42
2024/01/04 08:17:23;;;;;;;7.35;1.10;;;21.80;49.80;;;;;;10234135;28;20069;-42
2024/01/04 08:22:25;;;;;;;6.65;1.45;;;22.00;49.70;;;;;;10228914;28;20043;-42
2024/01/04 08:27:27;;;;;;;10.18;1.33;;;22.00;49.40;;;;;;10237208;28;20120;-42
2024/01/04 08:32:29;;;;;;;11.90;1.30;;;22.00;49.50;;;;;;10237729;28;20053;-42
2024/01/04 08:37:31;;;;;;;9.10;1.50;;;22.20;49.50;;;;;;10230257;28;20046;-42
2024/01/04 08:42:34;;;;;;;4.95;1.23;;;22.30;49.60;;;;;;10231732;28;20134;-46
2024/01/04 08:47:35;;;;;;;8.73;1.10;;;22.30;49.40;;;;;;10234510;28;20054;-43
2024/01/04 08:52:37;;;;;;;5.13;1.50;;;22.40;48.30;;;;;;10236025;28;20100;-47
2024/01/04 08:57:40;;;;;;;4.65;1.42;;;22.40;47.70;;;;;;10237768;28;20045;-42
2024/01/04 09:02:42;;;;;;;5.13;1.00;;;22.40;47.70;;;;;;10227748;28;20142;-45
2024/01/04 09:07:44;;;;;;;6.15;1.05;;;22.40;47.50;;;;;;10229868;28;20144;-45
2024/01/04 09:12:47;;;;;;;4.72;0.90;;;22.40;47.40;;;;;;10235121;28;20121;-45
2024/01/04 09:17:48;;;;;;;3.63;0.82;;;22.40;47.20;;;;;;10233916;28;20106;-45
2024/01/04 09:22:50;;;;;;;2.17;0.77;;;22.40;47.10;;;;;;10233837;28;20051;-48
2024/01/04 09:27:53;;;;;;;5.97;1.02;;;22.40;47.00;;;;;;10231464;28;20138;-42
2024/01/04 09:32:54;;;;;;;2.55;0.77;;;22.40;46.90;;;;;;10234136;28;20544;-42
2024/01/04 09:37:56;;;;;;;1.88;0.80;;;22.40;46.80;;;;;;10225420;28;20134;-41
2024/01/04 09:42:59;;;;;;;5.45;0.90;;;22.40;46.60;;;;;;10228718;28;20062;-43
2024/01/04 09:48:01;;;;;;;2.00;0.98;;;22.40;46.60;;;;;;10229596;28;20097;-43
2024/01/04 09:53:03;;;;;;;2.10;0.82;;;22.40;46.50;;;;;;10222769;28;20151;-45
2024/01/04 09:58:09;;;;;;;2.85;0.82;;;22.40;46.40;;;;;;10236607;28;20126;-43
2024/01/04 10:03:12;;;;;;;2.50;0.73;;;22.40;46.30;;;;;;10233149;28;20065;-42
2024/01/04 10:08:19;;;;;;;2.38;0.70;;;22.50;46.20;;;;;;10242342;28;20547;-44
2024/01/04 10:13:22;;;;;;;2.45;0.73;;;22.50;46.00;;;;;;10225476;28;20070;-44
2024/01/04 10:18:23;;;;;;;3.15;0.60;;;22.50;45.90;;;;;;10223099;28;20043;-42
2024/01/04 10:23:25;;;;;;;3.55;0.68;;;22.50;45.70;;;;;;10233692;28;20637;-46
2024/01/04 10:28:28;;;;;;;5.00;0.80;;;22.40;45.90;;;;;;10231899;28;20138;-42
2024/01/04 10:33:30;;;;;;;1.27;0.60;;;22.50;46.10;;;;;;10233316;28;20043;-45
2024/01/04 10:38:33;;;;;;;2.10;0.63;;;22.50;46.20;;;;;;10230409;28;20413;-45
2024/01/04 10:43:36;;;;;;;2.67;0.70;;;22.50;46.40;;;;;;10236561;28;20587;-43
2024/01/04 10:48:38;;;;;;;2.13;0.63;;;22.60;44.60;;;;;;10229887;28;20043;-47
2024/01/04 10:53:40;;;;;;;4.72;0.80;;;22.50;45.30;;;;;;10227064;28;20143;-46
2024/01/04 10:58:43;;;;;;;2.53;0.80;;;22.60;45.60;;;;;;10237125;28;20042;-42
2024/01/04 11:03:44;;;;;;;1.45;0.60;;;22.50;45.80;;;;;;10243828;28;20076;-48
2024/01/04 11:08:47;;;;;;;1.38;0.70;;;22.60;45.80;;;;;;10241565;28;20046;-46
2024/01/04 11:13:50;;;;;;;1.40;0.50;;;22.60;46.40;;;;;;10243673;28;20048;-42
2024/01/04 11:18:57;;;;;;;1.13;0.70;;;22.60;45.80;;;;;;10234903;28;20405;-42
2024/01/04 11:24:05;;;;;;;2.15;0.50;;;22.60;45.80;;;;;;10236665;28;20139;-45
2024/01/04 11:29:10;;;;;;;8.15;0.70;;;22.70;45.70;;;;;;10239070;28;20040;-47
2024/01/04 11:34:12;;;;;;;3.53;0.70;;;22.60;46.10;;;;;;10233705;28;20047;-42
2024/01/04 11:39:14;;;;;;;3.38;0.80;;;22.60;46.30;;;;;;10236906;28;20051;-41
2024/01/04 11:44:17;;;;;;;4.63;0.90;;;22.70;46.70;;;;;;10246909;28;20069;-43
2024/01/04 11:49:19;;;;;;;1.88;0.63;;;22.70;47.30;;;;;;10244975;28;20048;-42
2024/01/04 11:54:22;;;;;;;7.63;0.82;;;22.70;47.40;;;;;;10242656;28;20074;-51
2024/01/04 11:59:32;;;;;;;10.88;1.25;;;22.60;48.30;;;;;;10234760;28;20484;-42
2024/01/04 12:04:35;;;;;;;9.63;1.08;;;22.80;48.70;;;;;;10246193;28;20051;-43
2024/01/04 12:09:36;;;;;;;10.20;1.02;;;22.70;48.00;;;;;;10236960;28;20039;-47
2024/01/04 12:14:39;;;;;;;4.68;0.70;;;22.80;47.80;;;;;;10241070;28;20055;-44
2024/01/04 12:19:41;;;;;;;2.05;0.70;;;22.80;47.50;;;;;;10245840;28;20047;-50
2024/01/04 12:24:43;;;;;;;2.75;0.70;;;22.80;47.40;;;;;;10240728;28;20055;-43
2024/01/04 12:29:46;;;;;;;4.35;0.60;;;22.80;47.20;;;;;;10240175;28;20149;-42
2024/01/04 12:34:49;;;;;;;3.47;0.70;;;22.80;47.20;;;;;;10204713;28;20055;-42
2024/01/04 12:39:51;;;;;;;3.25;0.60;;;22.80;47.20;;;;;;10242650;28;20047;-45
2024/01/04 12:44:54;;;;;;;5.50;0.80;;;22.70;47.30;;;;;;10239675;28;20055;-44
2024/01/04 12:49:56;;;;;;;2.53;0.77;;;22.70;46.80;;;;;;10238804;28;20528;-42
2024/01/04 12:54:58;;;;;;;1.27;0.63;;;22.70;46.70;;;;;;10240370;28;20055;-42
2024/01/04 13:00:01;;;;;;;1.20;0.50;;;22.80;46.70;;;;;;10237710;28;20043;-42
2024/01/04 13:05:03;;;;;;;3.55;0.63;;;22.70;46.80;;;;;;10199591;28;20067;-46
2024/01/04 13:10:06;;;;;;;2.67;0.70;;;22.70;46.80;;;;;;10199549;28;20043;-42
2024/01/04 13:15:09;;;;;;;4.50;0.50;;;22.80;46.40;;;;;;10227892;28;20046;-43
2024/01/04 13:20:12;;;;;;;2.92;0.70;;;22.80;46.60;;;;;;10229020;28;20081;-42
2024/01/04 13:25:13;;;;;;;1.45;0.70;;;22.80;46.50;;;;;;10237534;28;20050;-44
2024/01/04 13:30:17;;;;;;;0.80;0.70;;;22.80;46.60;;;;;;10199988;28;20097;-45
2024/01/04 13:35:19;;;;;;;1.63;0.65;;;22.80;46.60;;;;;;10203095;28;20043;-46
2024/01/04 13:40:21;;;;;;;2.45;0.70;;;22.80;46.70;;;;;;10233914;28;20131;-45
2024/01/04 13:45:23;;;;;;;4.00;0.98;;;22.80;46.70;;;;;;10218829;28;20555;-46
2024/01/04 13:50:25;;;;;;;1.70;0.80;;;22.80;46.90;;;;;;10198102;28;20492;-45
2024/01/04 13:55:27;;;;;;;3.03;0.70;;;22.80;47.00;;;;;;10203197;28;20130;-44
2024/01/04 14:00:31;;;;;;;6.15;0.88;;;22.80;47.00;;;;;;10234917;29;20047;-44
2024/01/04 14:05:33;;;;;;;4.90;0.82;;;22.90;46.90;;;;;;10229827;28;20165;-45
2024/01/04 14:10:35;;;;;;;3.70;0.80;;;23.00;46.70;;;;;;10232631;28;20057;-43
2024/01/04 14:15:39;;;;;;;3.70;0.77;;;23.00;46.80;;;;;;10234856;28;20055;-43
2024/01/04 14:20:42;;;;;;;1.77;0.70;;;22.90;46.80;;;;;;10226732;28;20391;-45
2024/01/04 14:25:44;;;;;;;11.32;0.98;;;22.90;47.10;;;;;;10224827;28;20489;-45
2024/01/04 14:30:46;;;;;;;10.50;1.10;;;22.90;47.90;;;;;;10236755;28;20417;-43
2024/01/04 14:35:48;;;;;;;5.53;1.05;;;23.10;47.40;;;;;;10234269;28;20055;-43
2024/01/04 14:40:50;;;;;;;14.93;1.38;;;23.20;47.20;;;;;;10270488;28;20063;-45
2024/01/04 14:45:53;;;;;;;8.50;1.40;;;23.10;48.10;;;;;;10226295;28;20138;-45
2024/01/04 14:50:54;;;;;;;26.15;1.55;;;23.10;48.10;;;;;;10232959;28;20137;-42
2024/01/04 14:55:56;;;;;;;10.30;1.27;;;23.10;48.90;;;;;;10232771;28;20055;-42
2024/01/04 15:01:00;;;;;;;5.47;1.08;;;23.10;49.40;;;;;;10224485;28;20135;-44
2024/01/04 15:06:02;;;;;;;8.57;1.52;;;23.60;48.90;;;;;;10197230;28;20432;-47
2024/01/04 15:11:04;;;;;;;12.60;1.15;;;23.80;48.20;;;;;;10205260;28;20051;-44
2024/01/04 15:16:08;;;;;;;11.23;1.50;;;23.80;47.80;;;;;;10246515;28;20051;-45
2024/01/04 15:21:10;;;;;;;27.33;2.22;;;23.80;48.40;;;;;;10237563;28;20079;-43
2024/01/04 15:26:11;;;;;;;14.38;1.33;;;23.90;49.50;;;;;;10248772;28;20083;-42
2024/01/04 15:31:14;;;;;;;9.77;1.30;;;23.80;49.90;;;;;;10240831;28;20057;-46
2024/01/04 15:36:16;;;;;;;11.10;1.80;;;23.60;50.30;;;;;;10223682;28;20052;-44
2024/01/04 15:41:17;;;;;;;7.63;1.25;;;23.70;50.30;;;;;;10211353;28;20047;-44
2024/01/04 15:46:20;;;;;;;6.82;1.50;;;23.50;50.90;;;;;;10236917;28;20154;-44
2024/01/04 15:51:24;;;;;;;9.63;1.40;;;23.80;49.60;;;;;;10238231;28;20131;-44
2024/01/04 15:56:26;;;;;;;9.90;1.50;;;24.00;49.00;;;;;;10224198;28;20513;-43
2024/01/04 16:01:28;;;;;;;9.05;1.42;;;24.10;48.80;;;;;;10196412;28;20122;-43
2024/01/04 16:06:30;;;;;;;8.23;1.30;;;24.20;48.70;;;;;;10193634;28;20131;-45
2024/01/04 16:11:32;;;;;;;8.93;1.20;;;24.20;48.70;;;;;;10208310;28;20039;-45
2024/01/04 16:16:35;;;;;;;5.25;1.27;;;24.30;48.50;;;;;;10231220;28;20058;-43
2024/01/04 16:21:37;;;;;;;7.97;1.20;;;24.30;48.30;;;;;;10219801;28;20048;-43
2024/01/04 16:26:39;;;;;;;4.18;1.00;;;24.30;48.20;;;;;;10197891;29;20127;-43
2024/01/04 16:31:42;;;;;;;3.25;1.05;;;24.40;48.10;;;;;;10197434;29;20072;-43
2024/01/04 16:36:43;;;;;;;6.28;0.90;;;24.40;47.90;;;;;;10192767;28;20510;-43
2024/01/04 16:41:46;;;;;;;3.40;0.80;;;24.40;47.80;;;;;;10197321;28;20052;-45
2024/01/04 16:46:49;;;;;;;5.68;1.10;;;24.50;47.70;;;;;;10197257;28;20078;-43
2024/01/04 16:51:51;;;;;;;5.70;1.17;;;24.30;48.40;;;;;;10193303;28;20055;-45
2024/01/04 16:56:54;;;;;;;10.18;1.30;;;24.40;48.50;;;;;;10207323;28;20061;-42
2024/01/04 17:01:57;;;;;;;9.65;1.20;;;24.40;48.80;;;;;;10234425;28;20055;-45
2024/01/04 17:06:59;;;;;;;4.43;1.10;;;24.40;48.80;;;;;;10252476;28;20061;-43
2024/01/04 17:12:04;;;;;;;6.47;1.13;;;24.40;49.10;;;;;;10247577;28;20046;-43
2024/01/04 17:17:07;;;;;;;7.00;1.50;;;24.50;47.60;;;;;;10236298;28;20138;-45
2024/01/04 17:22:09;;;;;;;6.32;2.55;;;24.70;47.00;;;;;;10228051;28;20078;-43
2024/01/04 17:27:11;;;;;;;159.35;95.68;;;24.60;48.20;;;;;;10242325;28;20122;-44
2024/01/04 17:32:14;;;;;;;239.70;148.88;;;24.60;48.90;;;;;;10243438;28;20539;-44
2024/01/04 17:37:15;;;;;;;214.93;131.13;;;24.80;50.00;;;;;;10233789;28;20497;-45
2024/01/04 17:42:20;;;;;;;320.90;227.48;;;24.90;49.90;;;;;;10240152;28;20142;-43
2024/01/04 17:47:23;;;;;;;241.07;164.75;;;24.70;48.20;;;;;;10232922;28;20508;-45
2024/01/04 17:52:24;;;;;;;199.82;136.25;;;24.70;48.20;;;;;;10234151;28;20518;-43
2024/01/04 17:57:26;;;;;;;185.40;117.30;;;24.90;48.50;;;;;;10235171;28;20489;-44
2024/01/04 18:02:29;;;;;;;149.48;100.97;;;24.90;49.00;;;;;;10231872;28;20524;-46
2024/01/04 18:07:31;;;;;;;138.05;94.30;;;24.40;50.20;;;;;;10234123;28;20042;-43
2024/01/04 18:12:32;;;;;;;124.15;84.05;;;24.30;51.10;;;;;;10240157;28;20054;-45
2024/01/04 18:17:35;;;;;;;128.70;80.57;;;24.30;51.70;;;;;;10236904;28;20044;-45
2024/01/04 18:22:37;;;;;;;101.30;62.17;;;24.30;52.30;;;;;;10238668;28;20139;-44
2024/01/04 18:27:40;;;;;;;92.25;57.70;;;24.30;51.10;;;;;;10232177;28;20047;-44
2024/01/04 18:32:43;;;;;;;83.07;53.13;;;24.30;51.20;;;;;;10234037;28;20050;-44
2024/01/04 18:37:44;;;;;;;77.72;47.60;;;24.30;51.70;;;;;;10238136;28;20053;-45
2024/01/04 18:42:48;;;;;;;51.00;30.23;;;24.30;51.50;;;;;;10230660;28;20042;-45
2024/01/04 18:47:51;;;;;;;38.03;23.48;;;24.30;48.00;;;;;;10233266;28;20058;-44
2024/01/04 18:52:52;;;;;;;32.75;17.80;;;24.30;46.00;;;;;;10227127;28;20051;-44
2024/01/04 18:57:54;;;;;;;30.77;14.13;;;24.20;44.50;;;;;;10237570;28;20043;-45
2024/01/04 19:02:57;;;;;;;23.35;12.40;;;24.10;42.90;;;;;;10206011;28;20043;-43
2024/01/04 19:07:58;;;;;;;18.75;10.18;;;24.10;42.30;;;;;;10184363;29;20070;-44
2024/01/04 19:13:03;;;;;;;27.38;11.00;;;24.10;41.50;;;;;;10193645;28;20127;-44
2024/01/04 19:18:07;;;;;;;23.08;10.98;;;23.80;42.70;;;;;;10201300;28;20079;-44
2024/01/04 19:23:09;;;;;;;23.80;11.23;;;23.60;44.10;;;;;;10204493;28;20052;-45
2024/01/04 19:28:12;;;;;;;21.38;12.23;;;23.60;44.60;;;;;;10205292;28;20068;-43
2024/01/04 19:33:31;;;;;;;28.20;11.23;;;23.70;45.80;;;;;;10191164;28;20134;-44
2024/01/04 19:38:38;;;;;;;22.77;11.05;;;23.80;45.80;;;;;;10157889;28;20055;-44
2024/01/04 19:43:40;;;;;;;23.00;11.23;;;23.90;45.70;;;;;;10252990;28;20050;-44
2024/01/04 19:48:44;;;;;;;21.50;11.73;;;23.80;46.20;;;;;;10287011;28;20035;-44
2024/01/04 19:53:49;;;;;;;22.67;11.05;;;24.00;46.10;;;;;;10250853;28;20101;-45
2024/01/04 19:58:52;;;;;;;21.90;10.95;;;24.00;46.20;;;;;;10250730;28;20043;-44
2024/01/04 20:04:17;;;;;;;24.75;11.60;;;24.00;46.40;;;;;;10290093;28;20059;-45
2024/01/04 20:09:19;;;;;;;20.20;9.93;;;24.00;46.50;;;;;;10288548;28;20038;-45
2024/01/04 20:14:21;;;;;;;17.90;9.93;;;23.80;46.60;;;;;;10290746;28;20504;-45
2024/01/04 20:19:48;;;;;;;20.27;9.98;;;23.80;46.70;;;;;;10260262;28;20047;-45
2024/01/04 20:25:11;;;;;;;16.17;9.35;;;23.80;46.50;;;;;;10245829;28;20139;-45
2024/01/04 20:30:51;;;;;;;15.45;9.32;;;23.60;46.90;;;;;;10253739;28;20493;-45
2024/01/04 20:35:57;;;;;;;13.68;8.40;;;23.60;46.80;;;;;;10245366;28;20044;-44
2024/01/04 20:41:04;;;;;;;15.43;8.80;;;23.50;46.90;;;;;;10216575;28;20051;-44
2024/01/04 20:46:05;;;;;;;17.17;8.77;;;23.50;47.60;;;;;;10208016;28;20047;-44
2024/01/04 20:51:11;;;;;;;17.02;8.07;;;23.30;47.20;;;;;;10316944;28;20053;-45
2024/01/04 20:56:12;;;;;;;19.50;9.07;;;23.20;47.80;;;;;;10448133;28;20102;-45
2024/01/04 21:01:14;;;;;;;14.57;8.57;;;23.20;48.10;;;;;;10442510;28;20080;-45
2024/01/04 21:06:17;;;;;;;15.27;8.15;;;23.20;48.50;;;;;;10442685;28;20124;-47
2024/01/04 21:11:18;;;;;;;18.83;8.18;;;23.10;48.90;;;;;;10438409;28;20566;-47
2024/01/04 21:16:20;;;;;;;16.65;7.90;;;23.10;49.20;;;;;;10442981;28;20179;-44
2024/01/04 21:21:23;;;;;;;17.30;7.88;;;23.00;49.30;;;;;;10445819;28;20124;-45
2024/01/04 21:26:24;;;;;;;37.67;8.73;;;23.00;49.60;;;;;;10450101;28;20037;-44
2024/01/04 21:31:26;;;;;;;28.00;8.48;;;23.00;50.00;;;;;;10444559;28;20049;-45
2024/01/04 21:36:29;;;;;;;22.50;8.20;;;22.90;50.10;;;;;;10440873;28;20457;-44
2024/01/04 21:41:31;;;;;;;24.30;7.25;;;23.00;50.20;;;;;;10439847;28;20129;-43
2024/01/04 21:46:32;;;;;;;16.55;8.00;;;22.80;50.70;;;;;;10442340;28;20041;-44
2024/01/04 21:51:35;;;;;;;12.90;6.93;;;22.70;50.70;;;;;;10444739;28;20128;-45
2024/01/04 21:56:37;;;;;;;16.52;7.50;;;22.80;50.40;;;;;;10439857;28;20037;-44
2024/01/04 22:01:39;;;;;;;15.38;7.20;;;22.60;51.30;;;;;;10439680;28;20053;-45
2024/01/04 22:06:43;;;;;;;16.65;7.10;;;22.70;50.70;;;;;;10443567;28;20457;-46
2024/01/04 22:11:47;;;;;;;16.55;6.90;;;22.60;51.10;;;;;;10437008;28;20072;-45
2024/01/04 22:16:48;;;;;;;16.30;6.10;;;22.80;50.10;;;;;;10441684;28;20057;-44
2024/01/04 22:21:55;;;;;;;16.40;6.13;;;22.80;49.70;;;;;;10434525;28;20049;-44
2024/01/04 22:26:56;;;;;;;12.25;6.15;;;22.90;49.50;;;;;;10442170;28;20095;-44
2024/01/04 22:31:58;;;;;;;14.27;6.05;;;22.90;49.30;;;;;;10438352;28;20041;-46
2024/01/04 22:37:01;;;;;;;11.18;5.60;;;22.70;49.50;;;;;;10437408;28;20049;-44
2024/01/04 22:42:03;;;;;;;11.45;6.18;;;22.60;49.30;;;;;;10436767;28;20129;-45
2024/01/04 22:47:05;;;;;;;10.38;5.70;;;22.50;49.50;;;;;;10444769;28;20131;-45
2024/01/04 22:52:08;;;;;;;9.23;5.70;;;22.50;49.50;;;;;;10439405;28;20066;-44
2024/01/04 22:57:10;;;;;;;11.40;5.60;;;22.40;49.50;;;;;;10437735;28;20048;-45
2024/01/04 23:02:12;;;;;;;11.07;5.78;;;22.30;49.50;;;;;;10441490;28;20746;-43
2024/01/04 23:07:15;;;;;;;7.22;5.00;;;22.10;49.70;;;;;;10440964;28;20542;-43
2024/01/04 23:12:17;;;;;;;12.80;5.22;;;22.00;50.00;;;;;;10438058;28;20064;-45
2024/01/04 23:17:19;;;;;;;9.43;5.03;;;21.90;50.10;;;;;;10443005;28;20153;-44
2024/01/04 23:22:22;;;;;;;7.00;4.88;;;21.80;50.00;;;;;;10443670;28;20041;-43
2024/01/04 23:27:24;;;;;;;9.68;4.30;;;21.70;50.20;;;;;;10434006;28;20139;-46
2024/01/04 23:32:26;;;;;;;8.30;4.75;;;21.60;50.20;;;;;;10439252;28;20140;-45
2024/01/04 23:37:28;;;;;;;9.18;5.03;;;21.50;50.10;;;;;;10441231;28;20076;-44
2024/01/04 23:42:30;;;;;;;8.23;4.50;;;21.60;50.40;;;;;;10435975;28;20068;-45
2024/01/04 23:47:32;;;;;;;6.95;4.28;;;21.60;50.40;;;;;;10439869;28;20056;-44
2024/01/04 23:52:35;;;;;;;6.45;4.53;;;21.80;50.20;;;;;;10437550;28;20163;-44
2024/01/04 23:57:36;;;;;;;8.80;4.50;;;21.80;49.90;;;;;;10439086;28;20049;-46
